Time;durP1;ratioP1;P1;durP2;ratioP2;P2;SDS_P1;SDS_P2;PMS_P1;PMS_P2;Temp;Humidity;BMP_temperature;BMP_pressure;BME280_temperature;BME280_humidity;BME280_pressure;Samples;Min_cycle;Max_cycle;Signal;HPM_P1;HPM_P2
2021/01/07 00:01:29;;;;;;;20.10;10.97;;;2.30;99.90;;;;;;5008944;28;20821;-59
2021/01/07 00:03:55;;;;;;;18.60;10.40;;;4.50;99.90;;;;;;5008296;28;20423;-58
2021/01/07 00:06:20;;;;;;;20.55;10.60;;;3.20;99.90;;;;;;5009786;28;20389;-58
2021/01/07 00:08:46;;;;;;;20.43;11.07;;;5.00;99.90;;;;;;5008914;28;20396;-59
2021/01/07 00:11:11;;;;;;;18.90;10.20;;;5.10;99.90;;;;;;5009265;28;20421;-58
2021/01/07 00:13:38;;;;;;;18.33;10.30;;;4.20;99.90;;;;;;5009836;28;20435;-57
2021/01/07 00:16:05;;;;;;;18.38;10.05;;;5.50;99.90;;;;;;5008528;28;20511;-59
2021/01/07 00:18:31;;;;;;;17.45;9.35;;;2.60;99.90;;;;;;5010442;28;20439;-59
2021/01/07 00:20:56;;;;;;;17.58;9.80;;;3.70;99.90;;;;;;5008129;28;20400;-59
2021/01/07 00:23:22;;;;;;;20.35;10.85;;;2.50;99.90;;;;;;5010529;28;20393;-58
2021/01/07 00:25:53;;;;;;;18.37;10.03;;;3.20;99.90;;;;;;5008449;28;20404;-58
2021/01/07 00:28:20;;;;;;;18.60;10.38;;;2.60;99.90;;;;;;5007569;28;20380;-58
2021/01/07 00:30:46;;;;;;;17.90;10.55;;;3.50;99.90;;;;;;5009333;28;20491;-58
2021/01/07 00:33:13;;;;;;;17.23;10.48;;;2.50;99.90;;;;;;5008563;28;20478;-59
2021/01/07 00:35:40;;;;;;;19.65;10.98;;;2.50;99.90;;;;;;5009306;28;20890;-56
2021/01/07 00:38:06;;;;;;;21.05;11.57;;;2.40;99.90;;;;;;5008901;28;20401;-58
2021/01/07 00:40:33;;;;;;;19.98;11.00;;;2.50;99.90;;;;;;5010047;28;20878;-58
2021/01/07 00:42:59;;;;;;;20.23;11.70;;;2.50;99.90;;;;;;5008209;28;20491;-58
2021/01/07 00:45:25;;;;;;;20.83;11.20;;;3.10;99.90;;;;;;5010110;28;20389;-59
2021/01/07 00:47:50;;;;;;;21.43;11.40;;;4.00;99.90;;;;;;5007870;28;20392;-59
2021/01/07 00:50:17;;;;;;;19.20;10.60;;;5.40;99.90;;;;;;5009641;28;20527;-59
2021/01/07 00:52:43;;;;;;;19.20;10.73;;;2.70;99.90;;;;;;5007143;28;20416;-56
2021/01/07 00:55:09;;;;;;;19.00;10.73;;;3.60;99.90;;;;;;5009550;28;20388;-59
2021/01/07 00:57:35;;;;;;;21.27;11.20;;;2.70;99.90;;;;;;5009538;28;20799;-59
2021/01/07 01:00:05;;;;;;;19.25;11.15;;;2.70;99.90;;;;;;5009606;28;20533;-59
2021/01/07 01:02:31;;;;;;;18.47;10.90;;;2.70;99.90;;;;;;5008982;28;20524;-58
2021/01/07 01:04:56;;;;;;;20.80;11.60;;;2.60;99.90;;;;;;5008777;28;20521;-60
2021/01/07 01:07:23;;;;;;;20.58;10.60;;;2.70;99.90;;;;;;5007973;28;20443;-59
2021/01/07 01:09:48;;;;;;;18.17;11.23;;;3.20;99.90;;;;;;5009285;28;20863;-58
2021/01/07 01:12:14;;;;;;;19.85;11.15;;;5.40;99.90;;;;;;5008657;28;20422;-59
2021/01/07 01:14:40;;;;;;;19.00;10.67;;;2.60;99.90;;;;;;5009564;28;21029;-56
2021/01/07 01:17:06;;;;;;;19.17;10.63;;;4.20;99.90;;;;;;5009535;28;20458;-58
2021/01/07 01:19:32;;;;;;;18.60;11.00;;;4.60;99.90;;;;;;5012470;28;20447;-59
2021/01/07 01:21:58;;;;;;;17.92;9.90;;;2.70;99.90;;;;;;5013040;28;20393;-59
2021/01/07 01:24:24;;;;;;;17.48;9.60;;;2.90;99.90;;;;;;5012285;28;20428;-58
2021/01/07 01:27:02;;;;;;;16.25;9.52;;;4.60;99.90;;;;;;5012083;28;20443;-58
2021/01/07 01:29:28;;;;;;;18.77;10.40;;;2.70;99.90;;;;;;5013291;28;20885;-59
2021/01/07 01:31:54;;;;;;;16.97;9.57;;;2.80;99.90;;;;;;5012415;28;20477;-59
2021/01/07 01:34:21;;;;;;;16.42;9.45;;;2.80;99.90;;;;;;5013058;28;20409;-59
2021/01/07 01:36:47;;;;;;;16.77;9.27;;;4.40;99.90;;;;;;5011267;28;20393;-58
2021/01/07 01:39:17;;;;;;;17.48;9.32;;;2.90;99.90;;;;;;5013560;28;20914;-59
2021/01/07 01:41:44;;;;;;;14.93;8.43;;;2.90;99.90;;;;;;5011616;28;20432;-56
2021/01/07 01:44:11;;;;;;;18.65;10.10;;;3.00;99.90;;;;;;5013614;28;20938;-58
2021/01/07 01:46:37;;;;;;;15.40;9.10;;;3.00;99.90;;;;;;5012301;28;20496;-59
2021/01/07 01:49:03;;;;;;;17.90;9.30;;;3.00;99.90;;;;;;5012857;28;20385;-58
2021/01/07 01:51:30;;;;;;;16.33;9.02;;;3.70;99.90;;;;;;5013448;28;20421;-59
2021/01/07 01:53:56;;;;;;;17.83;9.60;;;3.90;99.90;;;;;;5010796;28;20894;-59
2021/01/07 01:56:23;;;;;;;14.75;8.32;;;3.00;99.90;;;;;;5013557;28;20389;-59
2021/01/07 01:58:50;;;;;;;15.43;9.35;;;5.40;99.90;;;;;;5012463;28;20389;-59
2021/01/07 02:01:16;;;;;;;14.88;8.65;;;3.10;99.90;;;;;;5011728;28;20408;-59
2021/01/07 02:03:42;;;;;;;14.75;9.02;;;5.40;99.90;;;;;;5012322;28;20393;-56
2021/01/07 02:06:12;;;;;;;25.27;12.70;;;3.10;99.90;;;;;;5011731;28;20393;-59
2021/01/07 02:08:41;;;;;;;34.67;15.10;;;3.10;99.90;;;;;;5012761;28;20744;-59
2021/01/07 02:11:09;;;;;;;26.38;12.60;;;4.80;99.90;;;;;;5010923;28;20924;-58
2021/01/07 02:13:35;;;;;;;38.13;16.30;;;3.30;99.90;;;;;;5013162;28;20432;-59
2021/01/07 02:16:01;;;;;;;24.35;11.77;;;3.70;99.90;;;;;;5010682;28;20679;-59
2021/01/07 02:18:26;;;;;;;18.40;10.30;;;3.30;99.90;;;;;;5012564;28;20839;-58
2021/01/07 02:20:52;;;;;;;15.13;9.03;;;3.20;99.90;;;;;;5010513;28;20397;-58
2021/01/07 02:23:18;;;;;;;14.85;8.88;;;3.20;99.90;;;;;;5012547;28;20490;-59
2021/01/07 02:25:43;;;;;;;16.48;9.02;;;3.30;99.90;;;;;;5010906;28;20401;-56
2021/01/07 02:28:09;;;;;;;16.30;9.33;;;3.00;99.90;;;;;;5011797;28;20747;-59
2021/01/07 02:30:35;;;;;;;15.93;9.10;;;4.30;99.90;;;;;;5011421;28;20419;-59
2021/01/07 02:33:00;;;;;;;15.25;8.45;;;3.20;99.90;;;;;;5011618;28;20687;-58
2021/01/07 02:35:26;;;;;;;15.80;8.87;;;3.20;99.90;;;;;;5010318;28;20405;-59
2021/01/07 02:37:51;;;;;;;15.05;8.40;;;3.10;99.90;;;;;;5011193;28;20396;-59
2021/01/07 02:40:17;;;;;;;14.55;8.13;;;3.00;99.90;;;;;;5010885;28;20392;-59
2021/01/07 02:42:43;;;;;;;16.87;8.70;;;4.40;99.90;;;;;;5011939;28;20484;-56
2021/01/07 02:45:09;;;;;;;16.45;9.25;;;3.00;99.90;;;;;;5011168;28;20425;-59
2021/01/07 02:47:39;;;;;;;15.53;9.00;;;3.00;99.90;;;;;;5012177;28;20881;-59
2021/01/07 02:50:06;;;;;;;18.27;9.32;;;4.50;99.90;;;;;;5011474;28;20393;-59
2021/01/07 02:52:32;;;;;;;15.50;9.13;;;2.90;99.90;;;;;;5010460;28;20475;-59
2021/01/07 02:54:57;;;;;;;16.40;9.48;;;2.90;99.90;;;;;;5011093;28;20798;-58
2021/01/07 02:57:23;;;;;;;18.43;10.00;;;4.90;99.90;;;;;;5010829;28;20405;-59
2021/01/07 02:59:48;;;;;;;17.30;10.17;;;2.80;99.90;;;;;;5010702;28;20450;-59
2021/01/07 03:02:14;;;;;;;18.92;10.10;;;2.60;99.90;;;;;;5010895;28;20865;-59
2021/01/07 03:04:40;;;;;;;18.60;9.70;;;4.40;99.90;;;;;;5010737;28;20497;-59
2021/01/07 03:07:05;;;;;;;17.07;9.57;;;3.60;99.90;;;;;;5011054;28;20499;-59
2021/01/07 03:09:31;;;;;;;19.45;10.63;;;3.50;99.90;;;;;;5010760;28;20826;-59
2021/01/07 03:11:57;;;;;;;17.45;9.00;;;5.40;99.90;;;;;;5010852;28;20512;-59
2021/01/07 03:14:22;;;;;;;18.97;9.70;;;2.80;99.90;;;;;;5009076;28;20484;-59
2021/01/07 03:16:48;;;;;;;15.63;9.65;;;5.10;99.90;;;;;;5009945;28;20884;-59
2021/01/07 03:19:13;;;;;;;17.23;9.90;;;3.70;99.90;;;;;;5010593;28;20413;-59
2021/01/07 03:21:41;;;;;;;18.00;9.63;;;3.00;99.90;;;;;;5011031;28;20858;-58
2021/01/07 03:24:10;;;;;;;17.00;9.35;;;5.40;99.90;;;;;;5009981;28;20534;-59
2021/01/07 03:26:35;;;;;;;15.35;9.02;;;3.50;99.90;;;;;;5011517;28;21162;-59
2021/01/07 03:29:03;;;;;;;17.42;9.73;;;5.20;99.90;;;;;;5008990;28;20416;-59
2021/01/07 03:31:29;;;;;;;16.52;9.45;;;3.00;99.90;;;;;;5010071;28;20743;-59
2021/01/07 03:33:54;;;;;;;18.63;9.32;;;5.50;99.90;;;;;;5009170;28;20431;-59
2021/01/07 03:36:20;;;;;;;17.07;9.37;;;3.50;99.90;;;;;;5011381;28;20385;-59
2021/01/07 03:38:45;;;;;;;16.50;9.00;;;4.80;99.90;;;;;;5009830;28;20912;-57
2021/01/07 03:41:12;;;;;;;16.00;9.10;;;5.20;99.90;;;;;;5010028;28;20397;-59
2021/01/07 03:43:38;;;;;;;14.77;8.40;;;2.90;99.90;;;;;;5011666;28;20384;-59
2021/01/07 03:46:04;;;;;;;14.65;9.05;;;4.20;99.90;;;;;;5008451;28;21040;-59
2021/01/07 03:48:29;;;;;;;15.37;9.00;;;4.90;99.90;;;;;;5011077;28;20399;-59
2021/01/07 03:50:55;;;;;;;13.90;8.47;;;3.10;99.90;;;;;;5010388;28;20388;-59
2021/01/07 03:53:20;;;;;;;15.73;8.57;;;3.10;99.90;;;;;;5009439;28;20420;-59
2021/01/07 03:55:46;;;;;;;15.77;9.20;;;3.50;99.90;;;;;;5010262;28;20396;-58
2021/01/07 03:58:12;;;;;;;15.37;9.00;;;4.30;99.90;;;;;;5011010;28;20455;-59
2021/01/07 04:00:37;;;;;;;17.90;9.60;;;3.90;99.90;;;;;;5009801;28;20863;-59
2021/01/07 04:03:04;;;;;;;20.67;10.90;;;4.50;99.90;;;;;;5009671;28;20483;-58
2021/01/07 04:05:30;;;;;;;18.67;10.15;;;3.10;99.90;;;;;;5009907;28;20424;-59
2021/01/07 04:07:55;;;;;;;17.30;9.65;;;3.10;99.90;;;;;;5010171;28;20392;-59
2021/01/07 04:10:21;;;;;;;17.50;9.57;;;5.30;99.90;;;;;;5010782;28;20766;-59
2021/01/07 04:12:46;;;;;;;18.88;9.95;;;3.30;99.90;;;;;;5007205;28;20431;-58
2021/01/07 04:15:12;;;;;;;16.50;9.90;;;4.20;99.90;;;;;;5010722;28;20460;-58
2021/01/07 04:17:38;;;;;;;19.70;9.50;;;4.10;99.90;;;;;;5010194;28;20421;-58
2021/01/07 04:20:05;;;;;;;18.13;10.07;;;4.10;99.90;;;;;;5008894;28;20401;-58
2021/01/07 04:22:31;;;;;;;17.33;9.13;;;2.90;99.90;;;;;;5010240;28;20437;-59
2021/01/07 04:24:56;;;;;;;16.10;8.80;;;5.70;99.90;;;;;;5007695;28;20534;-59
2021/01/07 04:27:22;;;;;;;15.25;8.85;;;2.90;99.90;;;;;;5010617;28;20384;-58
2021/01/07 04:29:48;;;;;;;17.80;9.70;;;2.90;99.90;;;;;;5009244;28;20447;-59
2021/01/07 04:32:13;;;;;;;18.67;9.10;;;5.50;99.90;;;;;;5009645;28;20939;-59
2021/01/07 04:34:39;;;;;;;16.17;9.10;;;2.60;99.90;;;;;;5010294;28;20397;-58
2021/01/07 04:37:05;;;;;;;18.80;9.80;;;2.70;99.90;;;;;;5008541;28;20483;-58
2021/01/07 04:39:30;;;;;;;17.30;9.07;;;2.70;99.90;;;;;;5010508;28;20954;-59
2021/01/07 04:41:56;;;;;;;17.85;9.50;;;5.60;99.90;;;;;;5008716;28;20420;-58
2021/01/07 04:44:22;;;;;;;19.27;9.97;;;4.90;99.90;;;;;;5010161;28;20440;-58
2021/01/07 04:46:47;;;;;;;17.87;10.07;;;4.20;99.90;;;;;;5010175;28;20384;-58
2021/01/07 04:49:14;;;;;;;18.17;9.73;;;2.70;99.90;;;;;;5009019;28;20721;-59
2021/01/07 04:51:40;;;;;;;13.57;8.13;;;2.70;99.90;;;;;;5009414;28;20751;-59
2021/01/07 04:54:05;;;;;;;17.63;8.30;;;2.70;99.90;;;;;;5007380;28;20962;-58
2021/01/07 04:56:31;;;;;;;18.63;8.90;;;4.00;99.90;;;;;;5009942;28;20411;-59
2021/01/07 04:58:57;;;;;;;13.65;8.38;;;5.50;99.90;;;;;;5007493;28;20403;-59
2021/01/07 05:01:22;;;;;;;11.30;7.00;;;2.90;99.90;;;;;;5008118;28;20436;-58
2021/01/07 05:03:51;;;;;;;13.60;6.90;;;3.80;99.90;;;;;;5009111;28;20392;-58
2021/01/07 05:06:25;;;;;;;11.82;7.30;;;2.70;99.90;;;;;;5010367;28;20381;-59
2021/01/07 05:09:02;;;;;;;12.32;6.63;;;2.70;99.90;;;;;;5008052;28;20479;-58
2021/01/07 05:11:31;;;;;;;11.55;6.55;;;2.70;99.90;;;;;;5010100;28;20412;-59
2021/01/07 05:14:02;;;;;;;9.77;6.07;;;2.60;99.90;;;;;;5007430;28;20408;-58
2021/01/07 05:16:29;;;;;;;13.68;6.40;;;2.60;99.90;;;;;;5009879;28;20373;-59
2021/01/07 05:18:54;;;;;;;12.50;6.80;;;2.50;99.90;;;;;;5007681;28;20401;-59
2021/01/07 05:21:21;;;;;;;10.30;6.00;;;2.50;99.90;;;;;;5009740;28;20392;-59
2021/01/07 05:23:51;;;;;;;12.02;6.50;;;3.60;99.90;;;;;;5007880;28;20397;-58
2021/01/07 05:26:18;;;;;;;12.00;6.68;;;2.40;99.90;;;;;;5009103;28;20380;-58
2021/01/07 05:28:51;;;;;;;11.77;6.65;;;3.90;99.90;;;;;;4999746;28;20894;-56
2021/01/07 05:31:22;;;;;;;12.68;7.43;;;2.50;99.90;;;;;;5009387;28;20411;-59
2021/01/07 05:33:48;;;;;;;13.45;7.80;;;5.20;99.90;;;;;;5007868;28;20455;-58
2021/01/07 05:36:25;;;;;;;14.15;8.00;;;4.20;99.90;;;;;;5009420;28;20421;-59
2021/01/07 05:38:53;;;;;;;13.63;7.50;;;4.60;99.90;;;;;;5007106;28;20436;-59
2021/01/07 05:41:20;;;;;;;12.02;7.20;;;5.40;99.90;;;;;;5001920;28;20400;-59
2021/01/07 05:43:57;;;;;;;12.80;7.30;;;3.80;99.90;;;;;;5008433;28;20543;-56
2021/01/07 05:46:24;;;;;;;11.30;6.97;;;4.60;99.90;;;;;;5009199;28;20415;-59
2021/01/07 05:48:53;;;;;;;12.35;6.70;;;5.10;99.90;;;;;;5007747;28;20773;-58
2021/01/07 05:51:22;;;;;;;13.80;7.43;;;3.80;99.90;;;;;;5009321;28;20472;-60
2021/01/07 05:53:49;;;;;;;12.38;6.88;;;2.60;99.90;;;;;;5007639;28;20447;-59
2021/01/07 05:56:18;;;;;;;12.90;7.10;;;2.60;99.90;;;;;;5005502;28;20408;-59
2021/01/07 05:58:46;;;;;;;10.68;6.15;;;2.50;99.90;;;;;;5008054;28;20432;-56
2021/01/07 06:01:12;;;;;;;11.18;6.40;;;4.40;99.90;;;;;;5009666;28;20396;-59
2021/01/07 06:03:40;;;;;;;11.27;6.33;;;5.00;99.90;;;;;;5008737;28;20405;-59
2021/01/07 06:06:07;;;;;;;9.38;5.70;;;3.60;99.90;;;;;;5012334;28;20380;-59
2021/01/07 06:08:34;;;;;;;9.00;5.32;;;2.50;99.90;;;;;;5012137;28;20424;-60
2021/01/07 06:11:00;;;;;;;10.65;5.80;;;2.80;99.90;;;;;;5012715;28;20431;-59
2021/01/07 06:13:26;;;;;;;10.52;5.40;;;2.80;99.90;;;;;;5010474;28;20414;-59
2021/01/07 06:15:52;;;;;;;10.75;6.00;;;2.60;99.90;;;;;;5009066;28;20450;-59
2021/01/07 06:18:18;;;;;;;9.77;5.28;;;4.20;99.90;;;;;;5004985;28;20437;-59
2021/01/07 06:20:43;;;;;;;8.80;5.20;;;2.70;99.90;;;;;;4993138;28;20387;-57
2021/01/07 06:23:19;;;;;;;10.38;5.30;;;2.00;99.90;;;;;;4992513;28;20422;-59
2021/01/07 06:25:46;;;;;;;10.85;6.10;;;5.40;99.90;;;;;;4992555;28;20405;-56
2021/01/07 06:28:26;;;;;;;10.87;5.83;;;2.80;99.90;;;;;;4992682;28;20446;-59
2021/01/07 06:30:55;;;;;;;8.90;5.20;;;2.80;99.90;;;;;;4992530;28;20437;-59
2021/01/07 06:33:21;;;;;;;9.90;5.30;;;2.80;99.90;;;;;;4993165;28;20564;-59
2021/01/07 06:35:46;;;;;;;10.23;5.60;;;2.80;99.90;;;;;;4992238;28;20477;-57
2021/01/07 06:38:14;;;;;;;11.20;6.00;;;2.80;99.90;;;;;;4992811;28;20455;-60
2021/01/07 06:40:41;;;;;;;9.43;5.10;;;2.90;99.90;;;;;;4993223;28;20922;-59
2021/01/07 06:43:18;;;;;;;8.68;5.13;;;5.30;99.90;;;;;;4992133;28;20969;-60
2021/01/07 06:45:55;;;;;;;9.32;5.50;;;5.40;99.90;;;;;;4992287;28;20383;-58
2021/01/07 06:48:25;;;;;;;10.85;5.40;;;2.90;99.90;;;;;;4992789;28;20406;-59
2021/01/07 06:50:55;;;;;;;11.10;5.70;;;3.70;99.90;;;;;;4992116;28;20383;-59
2021/01/07 06:53:21;;;;;;;10.73;5.75;;;2.90;99.90;;;;;;4992855;28;20468;-59
2021/01/07 06:56:22;;;;;;;10.23;5.72;;;2.80;99.90;;;;;;4995267;28;20412;-56
2021/01/07 06:58:49;;;;;;;10.13;5.60;;;2.80;99.90;;;;;;5011212;28;20400;-59
2021/01/07 07:01:18;;;;;;;9.20;5.60;;;3.60;99.90;;;;;;5011656;28;20428;-60
2021/01/07 07:03:49;;;;;;;10.17;5.90;;;3.90;99.90;;;;;;5011207;28;20393;-57
2021/01/07 07:06:17;;;;;;;11.30;6.20;;;2.90;99.90;;;;;;5011284;28;20848;-59
2021/01/07 07:08:45;;;;;;;10.45;6.10;;;2.90;99.90;;;;;;5011838;28;20385;-60
2021/01/07 07:11:13;;;;;;;10.23;5.38;;;2.90;99.90;;;;;;5011069;28;20381;-59
2021/01/07 07:13:41;;;;;;;10.38;5.20;;;2.90;99.90;;;;;;5010409;28;20413;-59
2021/01/07 07:16:09;;;;;;;10.65;5.70;;;2.90;99.90;;;;;;5009799;28;20393;-59
2021/01/07 07:18:35;;;;;;;10.43;6.00;;;3.40;99.90;;;;;;5011397;28;20379;-59
2021/01/07 07:21:26;;;;;;;12.82;6.10;;;3.00;99.90;;;;;;5010627;28;20385;-59
2021/01/07 07:23:56;;;;;;;11.18;6.05;;;3.00;99.90;;;;;;5010763;28;20374;-59
2021/01/07 07:26:35;;;;;;;11.40;6.40;;;3.90;99.90;;;;;;5011269;28;20393;-59
2021/01/07 07:29:04;;;;;;;12.15;6.50;;;4.40;99.90;;;;;;5010386;28;20463;-59
2021/01/07 07:31:40;;;;;;;12.13;6.57;;;2.70;99.90;;;;;;5010624;28;20449;-59
2021/01/07 07:34:06;;;;;;;13.30;6.90;;;3.80;99.90;;;;;;5010343;28;20385;-59
2021/01/07 07:36:32;;;;;;;12.68;6.53;;;4.80;99.90;;;;;;5011515;28;20463;-59
2021/01/07 07:38:58;;;;;;;13.23;6.97;;;4.90;99.90;;;;;;5010367;28;20392;-59
2021/01/07 07:41:27;;;;;;;14.00;7.22;;;3.60;99.90;;;;;;5011308;28;20384;-59
2021/01/07 07:43:54;;;;;;;13.68;7.18;;;5.20;99.90;;;;;;5010433;28;20965;-59
2021/01/07 07:46:25;;;;;;;11.87;6.53;;;4.70;99.90;;;;;;5011135;28;20388;-59
2021/01/07 07:49:00;;;;;;;12.07;6.65;;;3.50;99.90;;;;;;5010313;28;20385;-59
2021/01/07 07:51:26;;;;;;;14.13;6.97;;;2.80;99.90;;;;;;5010819;28;20547;-59
2021/01/07 07:54:02;;;;;;;14.02;6.80;;;3.10;99.90;;;;;;5010469;28;20512;-59
2021/01/07 07:56:28;;;;;;;15.50;7.43;;;2.70;99.90;;;;;;5010811;28;20378;-59
2021/01/07 07:59:07;;;;;;;13.93;7.63;;;3.50;99.90;;;;;;5009884;28;20865;-59
2021/01/07 08:01:42;;;;;;;14.13;7.15;;;2.90;99.90;;;;;;5010634;28;20420;-59
2021/01/07 08:04:16;;;;;;;13.03;7.60;;;2.40;99.90;;;;;;5009758;28;20405;-58
2021/01/07 08:06:43;;;;;;;17.53;8.30;;;2.30;99.90;;;;;;5009233;28;20439;-59
2021/01/07 08:09:14;;;;;;;12.90;8.30;;;4.30;99.90;;;;;;5008962;28;20392;-59
2021/01/07 08:11:41;;;;;;;13.45;7.75;;;2.40;99.90;;;;;;5010109;28;20476;-59
2021/01/07 08:14:09;;;;;;;14.10;8.10;;;2.80;99.90;;;;;;5009792;28;20397;-58
2021/01/07 08:16:36;;;;;;;16.10;9.45;;;2.60;99.90;;;;;;5008824;28;20878;-59
2021/01/07 08:19:01;;;;;;;15.95;8.55;;;4.10;99.90;;;;;;5009472;28;20523;-59
2021/01/07 08:21:27;;;;;;;15.70;8.32;;;3.30;99.90;;;;;;5008596;28;20620;-59
2021/01/07 08:24:08;;;;;;;15.87;8.40;;;4.20;99.90;;;;;;5009752;28;20482;-58
2021/01/07 08:26:35;;;;;;;15.90;8.60;;;2.30;99.90;;;;;;5009425;28;20381;-58
2021/01/07 08:29:01;;;;;;;15.43;8.43;;;2.40;99.90;;;;;;5008368;28;20408;-59
2021/01/07 08:31:30;;;;;;;15.03;8.90;;;2.30;99.90;;;;;;5010063;28;20393;-60
2021/01/07 08:33:57;;;;;;;15.18;8.30;;;2.70;99.90;;;;;;5007896;28;20484;-60
2021/01/07 08:36:22;;;;;;;15.85;9.27;;;3.80;99.90;;;;;;5010046;28;20434;-60
2021/01/07 08:38:53;;;;;;;14.50;8.70;;;4.90;99.90;;;;;;5007894;28;20393;-56
2021/01/07 08:41:21;;;;;;;16.40;8.68;;;2.50;99.90;;;;;;5009649;28;20761;-59
2021/01/07 08:43:50;;;;;;;14.32;8.75;;;5.30;99.90;;;;;;5007926;28;20878;-56
2021/01/07 08:46:24;;;;;;;17.17;9.03;;;2.40;99.90;;;;;;5010186;28;20480;-59
2021/01/07 08:49:08;;;;;;;17.17;8.75;;;2.40;99.90;;;;;;5007683;28;20727;-58
2021/01/07 08:51:42;;;;;;;18.27;8.90;;;2.40;99.90;;;;;;5008421;28;20774;-58
2021/01/07 08:54:13;;;;;;;15.88;8.90;;;2.50;99.90;;;;;;5005813;28;20536;-59
2021/01/07 08:56:43;;;;;;;15.25;8.60;;;2.60;99.90;;;;;;5009144;28;20401;-58
2021/01/07 08:59:40;;;;;;;16.58;9.27;;;2.60;99.90;;;;;;5007502;28;20415;-59
2021/01/07 09:02:08;;;;;;;16.57;9.70;;;2.60;99.90;;;;;;5008467;28;20459;-59
2021/01/07 09:04:36;;;;;;;18.25;9.85;;;3.40;99.90;;;;;;5008240;28;20450;-59
2021/01/07 09:07:08;;;;;;;16.90;9.00;;;3.50;99.90;;;;;;5008540;28;20401;-58
2021/01/07 09:09:42;;;;;;;16.50;10.00;;;2.70;99.90;;;;;;5008588;28;20405;-59
2021/01/07 09:12:28;;;;;;;17.77;9.65;;;2.80;99.90;;;;;;5007348;28;21097;-59
2021/01/07 09:15:07;;;;;;;18.80;10.18;;;4.60;99.90;;;;;;5007836;28;20400;-59
2021/01/07 09:17:43;;;;;;;18.08;10.32;;;2.90;99.90;;;;;;5008231;28;20416;-59
2021/01/07 09:20:19;;;;;;;17.30;9.73;;;2.90;99.90;;;;;;5008731;28;20499;-58
2021/01/07 09:22:47;;;;;;;20.05;11.48;;;3.00;99.90;;;;;;5007648;28;20432;-57
2021/01/07 09:25:20;;;;;;;17.10;10.32;;;3.10;99.90;;;;;;5009045;28;20380;-59
2021/01/07 09:27:49;;;;;;;17.83;10.27;;;3.00;99.90;;;;;;5006388;28;20478;-56
2021/01/07 09:30:15;;;;;;;20.52;10.52;;;3.10;99.90;;;;;;5007689;28;20438;-59
2021/01/07 09:32:42;;;;;;;21.25;12.00;;;3.10;99.90;;;;;;5009391;28;20886;-59
2021/01/07 09:35:08;;;;;;;18.33;10.17;;;4.60;99.90;;;;;;5007064;28;20404;-59
2021/01/07 09:37:35;;;;;;;21.80;12.67;;;2.90;99.90;;;;;;5008651;28;20411;-59
2021/01/07 09:40:02;;;;;;;20.45;11.55;;;3.00;99.90;;;;;;5010676;28;20392;-59
2021/01/07 09:42:32;;;;;;;19.93;11.13;;;3.00;99.90;;;;;;5012169;28;20420;-59
2021/01/07 09:44:58;;;;;;;20.85;11.20;;;3.10;99.90;;;;;;5011739;28;20470;-59
2021/01/07 09:47:24;;;;;;;22.58;12.05;;;3.20;99.90;;;;;;5011458;28;20444;-59
2021/01/07 09:49:50;;;;;;;21.90;12.48;;;3.60;99.90;;;;;;5012373;28;20385;-59
2021/01/07 09:52:16;;;;;;;24.35;11.60;;;3.80;99.90;;;;;;5011665;28;20762;-59
2021/01/07 09:54:42;;;;;;;23.43;12.47;;;3.00;99.90;;;;;;5012184;28;20965;-58
2021/01/07 09:57:08;;;;;;;22.98;12.48;;;3.00;99.90;;;;;;5011420;28;20444;-59
2021/01/07 09:59:35;;;;;;;22.67;11.93;;;3.20;99.90;;;;;;5011432;28;20436;-59
2021/01/07 10:02:07;;;;;;;22.88;12.60;;;3.90;99.90;;;;;;5011723;28;20510;-59
2021/01/07 10:04:33;;;;;;;23.08;12.80;;;5.30;99.90;;;;;;5011599;28;20436;-59
2021/01/07 10:06:59;;;;;;;21.90;12.55;;;4.00;99.90;;;;;;5012011;28;20373;-59
2021/01/07 10:09:25;;;;;;;22.25;11.73;;;4.50;99.90;;;;;;5010861;28;20397;-59
2021/01/07 10:11:55;;;;;;;23.05;12.07;;;3.30;99.90;;;;;;5011757;28;20424;-58
2021/01/07 10:14:22;;;;;;;22.65;11.63;;;3.40;99.90;;;;;;5011532;28;20409;-59
2021/01/07 10:16:53;;;;;;;20.77;12.00;;;3.60;99.90;;;;;;5012062;28;20550;-57
2021/01/07 10:19:20;;;;;;;22.20;11.48;;;3.50;99.90;;;;;;5011728;28;20547;-58
2021/01/07 10:21:48;;;;;;;21.70;11.05;;;3.70;99.90;;;;;;5011869;28;20392;-57
2021/01/07 10:24:15;;;;;;;21.60;10.90;;;4.90;99.90;;;;;;5011319;28;20420;-59
2021/01/07 10:26:42;;;;;;;21.60;11.52;;;3.70;99.90;;;;;;5012325;28;20381;-58
2021/01/07 10:29:07;;;;;;;22.38;11.35;;;4.70;99.90;;;;;;5009803;28;20499;-59
2021/01/07 10:31:34;;;;;;;25.75;11.95;;;3.20;99.90;;;;;;5011965;28;20829;-59
2021/01/07 10:34:04;;;;;;;19.48;10.25;;;5.80;99.90;;;;;;5011516;28;20407;-58
2021/01/07 10:36:30;;;;;;;23.37;12.00;;;3.40;99.90;;;;;;5010482;28;20488;-59
2021/01/07 10:38:58;;;;;;;21.63;11.40;;;3.40;99.90;;;;;;5011375;28;20480;-58
2021/01/07 10:41:30;;;;;;;20.23;11.50;;;3.30;99.90;;;;;;5011176;28;20376;-59
2021/01/07 10:43:59;;;;;;;22.77;11.13;;;3.30;99.90;;;;;;5008750;28;20474;-59
2021/01/07 10:46:25;;;;;;;21.90;11.75;;;3.50;99.90;;;;;;5011583;28;20401;-59
2021/01/07 10:48:53;;;;;;;21.73;11.98;;;5.40;99.90;;;;;;5009144;28;20897;-58
2021/01/07 10:51:19;;;;;;;20.23;11.50;;;4.90;99.90;;;;;;5007925;28;20492;-59
2021/01/07 10:54:00;;;;;;;18.15;10.43;;;4.80;99.90;;;;;;5011867;28;20416;-60
2021/01/07 10:56:49;;;;;;;20.30;10.43;;;4.40;99.90;;;;;;5010750;28;20392;-59
2021/01/07 10:59:48;;;;;;;16.27;9.57;;;4.00;99.90;;;;;;5010892;28;20385;-58
2021/01/07 11:02:37;;;;;;;18.48;11.25;;;4.00;99.90;;;;;;5010261;28;20707;-59
2021/01/07 11:05:05;;;;;;;17.42;10.00;;;4.00;99.90;;;;;;5010935;28;20459;-60
2021/01/07 11:07:34;;;;;;;19.30;10.50;;;4.10;99.90;;;;;;5010092;28;20516;-59
2021/01/07 11:10:04;;;;;;;19.42;11.60;;;4.00;99.90;;;;;;5008054;28;20431;-59
2021/01/07 11:12:38;;;;;;;20.85;11.30;;;4.00;99.90;;;;;;5009484;28;20771;-59
2021/01/07 11:15:05;;;;;;;16.55;9.77;;;4.20;99.90;;;;;;5003318;28;20415;-59
2021/01/07 11:17:34;;;;;;;17.90;10.88;;;4.40;99.90;;;;;;4998741;28;20435;-59
2021/01/07 11:20:06;;;;;;;19.55;10.32;;;4.40;99.90;;;;;;5008508;28;20882;-58
2021/01/07 11:22:37;;;;;;;17.40;9.82;;;4.30;99.90;;;;;;5010660;28;20453;-61
2021/01/07 11:25:03;;;;;;;18.73;10.32;;;4.30;99.90;;;;;;5007930;28;21051;-59
2021/01/07 11:27:33;;;;;;;17.77;9.20;;;4.30;99.90;;;;;;5010162;28;20411;-59
2021/01/07 11:30:03;;;;;;;18.27;10.05;;;6.90;99.90;;;;;;5008245;28;20884;-59
2021/01/07 11:32:30;;;;;;;16.10;8.93;;;4.10;99.90;;;;;;5010287;28;20466;-59
2021/01/07 11:34:59;;;;;;;14.02;7.82;;;5.90;99.90;;;;;;5010218;28;20866;-60
2021/01/07 11:37:30;;;;;;;14.10;7.57;;;4.20;99.90;;;;;;5009275;28;20487;-59
2021/01/07 11:39:58;;;;;;;15.10;8.00;;;4.30;99.90;;;;;;5008654;28;20977;-60
2021/01/07 11:43:14;;;;;;;15.73;8.20;;;4.40;99.90;;;;;;5008909;28;20862;-60
2021/01/07 11:45:45;;;;;;;15.20;7.57;;;4.50;99.90;;;;;;4976422;28;20910;-59
2021/01/07 11:48:14;;;;;;;13.45;7.00;;;4.50;99.90;;;;;;5008133;28;20596;-58
2021/01/07 11:50:43;;;;;;;13.77;7.20;;;3.90;99.90;;;;;;5010304;28;20851;-60
2021/01/07 11:53:11;;;;;;;13.03;6.70;;;5.30;99.90;;;;;;5007631;28;20428;-58
2021/01/07 11:55:37;;;;;;;13.43;7.50;;;4.00;99.90;;;;;;5010031;28;20395;-61
2021/01/07 11:58:03;;;;;;;13.50;7.35;;;4.10;99.90;;;;;;5008058;28;20404;-59
2021/01/07 12:00:29;;;;;;;12.40;6.60;;;6.40;99.90;;;;;;5008665;28;20403;-59
2021/01/07 12:02:56;;;;;;;12.70;6.60;;;4.40;99.90;;;;;;5008830;28;20441;-59
2021/01/07 12:05:24;;;;;;;11.95;6.40;;;6.30;99.90;;;;;;5008208;28;20770;-60
2021/01/07 12:08:05;;;;;;;11.40;6.13;;;6.10;99.90;;;;;;5010117;28;20382;-56
2021/01/07 12:10:33;;;;;;;12.27;6.47;;;4.50;99.90;;;;;;5006600;28;20400;-60
2021/01/07 12:13:16;;;;;;;11.68;6.20;;;5.40;99.90;;;;;;5009156;28;20747;-60
2021/01/07 12:15:44;;;;;;;13.07;7.35;;;4.00;99.90;;;;;;5008147;28;20419;-59
2021/01/07 12:18:12;;;;;;;12.82;6.43;;;6.40;99.90;;;;;;5008869;28;20464;-59
2021/01/07 12:20:38;;;;;;;13.95;6.93;;;6.30;99.90;;;;;;5009354;28;20389;-59
2021/01/07 12:23:06;;;;;;;14.70;7.68;;;6.00;99.90;;;;;;5009697;28;20389;-59
2021/01/07 12:25:32;;;;;;;14.82;7.50;;;5.60;99.90;;;;;;5009305;28;20504;-59
2021/01/07 12:27:58;;;;;;;12.55;7.30;;;4.50;99.90;;;;;;5008721;28;20444;-60
2021/01/07 12:30:24;;;;;;;15.52;7.18;;;4.60;99.90;;;;;;5007763;28;20452;-59
2021/01/07 12:33:27;;;;;;;15.10;7.30;;;4.90;99.90;;;;;;5009782;28;20419;-57
2021/01/07 12:36:06;;;;;;;12.88;6.70;;;4.30;99.90;;;;;;5007105;28;20408;-56
2021/01/07 12:38:58;;;;;;;13.30;6.60;;;4.30;99.90;;;;;;5006976;28;20407;-60
2021/01/07 12:41:29;;;;;;;14.05;7.10;;;4.50;99.90;;;;;;5006005;28;20451;-59
2021/01/07 12:43:57;;;;;;;13.45;7.10;;;4.60;99.90;;;;;;5008172;28;20393;-59
2021/01/07 12:46:28;;;;;;;13.80;7.85;;;4.50;99.90;;;;;;5007372;28;20408;-60
2021/01/07 12:48:55;;;;;;;13.93;7.75;;;4.60;99.90;;;;;;5007739;28;20405;-57
2021/01/07 12:51:21;;;;;;;14.20;7.35;;;6.80;99.90;;;;;;5008758;28;20391;-60